createdAt,value
2022-12-18T00:00:07.673Z,-2.67
2022-12-18T00:05:11.088Z,-2.62
2022-12-18T00:10:15.364Z,-2.54
2022-12-18T00:15:18.824Z,-2.49
2022-12-18T00:20:26.716Z,-2.53
2022-12-18T00:25:30.138Z,-2.54
2022-12-18T00:30:33.496Z,-2.51
2022-12-18T00:35:36.784Z,-2.51
2022-12-18T00:40:40.215Z,-2.57
2022-12-18T00:45:43.518Z,-2.60
2022-12-18T00:50:46.963Z,-2.71
2022-12-18T00:55:50.242Z,-2.95
2022-12-18T01:00:53.885Z,-3.06
2022-12-18T01:05:57.297Z,-3.10
2022-12-18T01:11:00.607Z,-3.07
2022-12-18T01:16:04.152Z,-3.03
2022-12-18T01:21:13.811Z,-3.01
2022-12-18T01:26:17.604Z,-3.05
2022-12-18T01:31:24.347Z,-3.13
2022-12-18T01:36:30.858Z,-3.18
2022-12-18T01:41:54.193Z,-3.30
2022-12-18T01:46:57.479Z,-3.44
2022-12-18T01:52:00.804Z,-3.61
2022-12-18T01:57:04.287Z,-3.75
2022-12-18T02:02:08.954Z,-3.92
2022-12-18T02:07:36.830Z,-4.12
2022-12-18T02:12:58.317Z,-4.25
2022-12-18T02:18:11.788Z,-4.30
2022-12-18T02:23:36.733Z,-4.35
2022-12-18T02:29:15.515Z,-4.41
2022-12-18T02:34:21.459Z,-4.47
2022-12-18T02:39:28.261Z,-4.48
2022-12-18T02:44:31.590Z,-4.47
2022-12-18T02:50:12.126Z,-4.41
2022-12-18T02:55:21.693Z,-4.36
2022-12-18T03:00:34.944Z,-4.32
2022-12-18T03:05:48.644Z,-4.28
2022-12-18T03:11:01.148Z,-4.20
2022-12-18T03:16:09.486Z,-4.17
2022-12-18T03:21:14.966Z,-4.23
2022-12-18T03:26:23.172Z,-4.24
2022-12-18T03:31:29.901Z,-4.36
2022-12-18T03:36:33.552Z,-4.41
2022-12-18T03:42:01.864Z,-4.40
2022-12-18T03:47:16.481Z,-4.37
2022-12-18T03:52:36.749Z,-4.35
2022-12-18T03:57:44.282Z,-4.45
2022-12-18T04:02:53.394Z,-4.40
2022-12-18T04:07:58.242Z,-4.31
2022-12-18T04:13:01.617Z,-4.24
2022-12-18T04:18:05.039Z,-4.19
2022-12-18T04:23:08.399Z,-4.13
2022-12-18T04:28:11.892Z,-4.14
2022-12-18T04:33:15.653Z,-4.15
2022-12-18T04:38:19.421Z,-4.14
2022-12-18T04:43:22.766Z,-4.04
2022-12-18T04:48:26.875Z,-3.95
2022-12-18T04:53:30.269Z,-3.87
2022-12-18T04:58:33.622Z,-3.78
2022-12-18T05:03:38.641Z,-3.66
2022-12-18T05:08:42.252Z,-3.53
2022-12-18T05:13:46.709Z,-3.45
2022-12-18T05:18:50.003Z,-3.38
2022-12-18T05:23:53.337Z,-3.29
2022-12-18T05:28:56.613Z,-3.19
2022-12-18T05:33:59.906Z,-3.06
2022-12-18T05:39:03.345Z,-3.00
2022-12-18T05:44:07.218Z,-2.92
2022-12-18T05:49:10.518Z,-2.84
2022-12-18T05:54:13.848Z,-2.73
2022-12-18T05:59:17.078Z,-2.64
2022-12-18T06:04:20.507Z,-2.57
2022-12-18T06:09:24.512Z,-2.47
2022-12-18T06:14:27.895Z,-2.35
2022-12-18T06:19:31.181Z,-2.24
2022-12-18T06:24:34.551Z,-2.20
2022-12-18T06:29:37.812Z,-2.14
2022-12-18T06:34:41.162Z,-2.09
2022-12-18T06:39:44.839Z,-2.12
2022-12-18T06:44:48.413Z,-2.09
2022-12-18T06:49:51.734Z,-2.03
2022-12-18T06:54:55.120Z,-1.98
2022-12-18T06:59:58.375Z,-1.92
2022-12-18T07:05:07.474Z,-1.85
2022-12-18T07:10:16.950Z,-1.91
2022-12-18T07:15:20.231Z,-1.89
2022-12-18T07:20:23.609Z,-1.85
2022-12-18T07:25:26.982Z,-1.77
2022-12-18T07:30:30.401Z,-1.71
2022-12-18T07:35:35.285Z,-1.70
2022-12-18T07:40:38.832Z,-1.67
2022-12-18T07:45:44.539Z,-1.62
2022-12-18T07:50:48.218Z,-1.62
2022-12-18T07:56:25.948Z,-1.55
2022-12-18T08:01:24.007Z,-1.45
2022-12-18T08:06:27.579Z,-1.42
2022-12-18T08:11:31.340Z,-1.40
2022-12-18T08:16:34.949Z,-1.39
2022-12-18T08:21:38.999Z,-1.47
2022-12-18T08:26:45.578Z,-1.53
2022-12-18T08:31:55.575Z,-1.56
2022-12-18T08:36:58.968Z,-1.56
2022-12-18T08:42:21.374Z,-1.50
2022-12-18T08:47:24.954Z,-1.41
2022-12-18T08:52:29.521Z,-1.13
2022-12-18T08:57:32.873Z,-0.70
2022-12-18T09:02:36.453Z,-0.51
2022-12-18T09:07:40.219Z,-0.48
2022-12-18T09:12:43.635Z,-0.34
2022-12-18T09:17:47.078Z,-0.43
2022-12-18T09:22:51.099Z,-0.41
2022-12-18T09:27:54.318Z,-0.27
2022-12-18T09:32:58.653Z,-0.18
2022-12-18T09:38:01.990Z,-0.09
2022-12-18T09:43:08.205Z,-0.12
2022-12-18T09:48:21.252Z,-0.09
2022-12-18T09:53:29.772Z,0.01
2022-12-18T09:58:42.115Z,0.10
2022-12-18T10:03:45.849Z,0.22
2022-12-18T10:09:16.951Z,0.32
2022-12-18T10:14:45.922Z,0.23
2022-12-18T10:19:55.023Z,-0.01
2022-12-18T10:25:08.541Z,-0.17
2022-12-18T10:30:18.334Z,-0.33
2022-12-18T10:35:25.522Z,-0.44
2022-12-18T10:40:29.018Z,-0.19
2022-12-18T10:45:32.469Z,0.02
2022-12-18T10:56:06.186Z,-0.28
2022-12-18T11:01:14.768Z,-0.39
2022-12-18T11:06:23.155Z,-0.50
2022-12-18T11:11:27.063Z,-0.69
2022-12-18T11:16:36.354Z,-0.82
2022-12-18T11:21:44.261Z,-0.97
2022-12-18T11:26:47.885Z,-1.01
2022-12-18T11:31:51.327Z,-1.08
2022-12-18T11:36:56.100Z,-1.16
2022-12-18T11:42:10.261Z,-1.25
2022-12-18T11:47:27.452Z,-1.33
2022-12-18T11:52:52.866Z,-1.38
2022-12-18T11:58:31.313Z,-1.48
2022-12-18T12:04:00.642Z,-1.53
2022-12-18T12:09:22.707Z,-1.57
2022-12-18T12:14:47.595Z,-1.60
2022-12-18T12:20:13.835Z,-1.66
2022-12-18T12:25:32.192Z,-1.60
2022-12-18T12:31:03.333Z,-1.65
2022-12-18T12:36:35.714Z,-1.77
2022-12-18T12:42:01.426Z,-1.83
2022-12-18T12:47:44.008Z,-1.87
2022-12-18T12:52:52.442Z,-1.92
2022-12-18T12:58:04.992Z,-1.96
2022-12-18T13:03:25.451Z,-2.03
2022-12-18T13:08:33.288Z,-2.19
2022-12-18T13:13:58.164Z,-2.28
2022-12-18T13:19:02.424Z,-2.38
2022-12-18T13:24:28.641Z,-2.47
2022-12-18T13:29:45.102Z,-2.59
2022-12-18T13:34:48.925Z,-2.74
2022-12-18T13:39:52.379Z,-2.89
2022-12-18T13:44:55.936Z,-3.05
2022-12-18T13:50:00.382Z,-3.27
2022-12-18T13:55:08.240Z,-3.49
2022-12-18T14:00:31.492Z,-3.61
2022-12-18T14:05:40.233Z,-3.78
2022-12-18T14:10:50.796Z,-4.03
2022-12-18T14:15:55.373Z,-4.25
2022-12-18T14:21:03.278Z,-4.33
2022-12-18T14:26:24.712Z,-4.32
2022-12-18T14:31:30.708Z,-4.17
2022-12-18T14:36:34.260Z,-4.13
2022-12-18T14:41:37.736Z,-4.13
2022-12-18T14:46:44.149Z,-4.12
2022-12-18T14:51:51.552Z,-4.11
2022-12-18T14:57:06.678Z,-4.11
2022-12-18T15:02:27.069Z,-4.02
2022-12-18T15:07:46.785Z,-3.97
2022-12-18T15:12:51.762Z,-3.99
2022-12-18T15:17:59.765Z,-3.88
2022-12-18T15:23:03.091Z,-3.80
2022-12-18T15:28:37.852Z,-3.77
2022-12-18T15:33:54.329Z,-3.82
2022-12-18T15:39:05.056Z,-3.83
2022-12-18T15:44:39.195Z,-3.75
2022-12-18T15:49:42.449Z,-3.82
2022-12-18T15:55:04.789Z,-3.79
2022-12-18T16:00:13.365Z,-3.75
2022-12-18T16:05:18.993Z,-3.74
2022-12-18T16:10:22.866Z,-3.64
2022-12-18T16:15:26.199Z,-3.63
2022-12-18T16:20:29.524Z,-3.60
2022-12-18T16:25:33.147Z,-3.61
2022-12-18T16:30:37.832Z,-3.66
2022-12-18T16:35:42.035Z,-3.66
2022-12-18T16:41:05.027Z,-3.59
2022-12-18T16:46:08.426Z,-3.58
2022-12-18T16:51:11.766Z,-3.53
2022-12-18T16:56:15.043Z,-3.44
2022-12-18T17:01:18.669Z,-3.42
2022-12-18T17:06:23.127Z,-3.49
2022-12-18T17:11:28.209Z,-3.46
2022-12-18T17:16:32.762Z,-3.41
2022-12-18T17:21:37.158Z,-3.54
2022-12-18T17:26:42.130Z,-3.48
2022-12-18T17:31:45.687Z,-3.49
2022-12-18T17:36:49.039Z,-3.49
2022-12-18T17:41:52.605Z,-3.58
2022-12-18T17:46:56.557Z,-3.61
2022-12-18T17:51:59.905Z,-3.57
2022-12-18T17:57:03.227Z,-3.56
2022-12-18T18:02:10.277Z,-3.57
2022-12-18T18:07:14.396Z,-3.49
2022-12-18T18:12:36.611Z,-3.39
2022-12-18T18:17:40.114Z,-3.35
2022-12-18T18:22:45.363Z,-3.39
2022-12-18T18:27:48.706Z,-3.48
2022-12-18T18:32:53.120Z,-3.57
2022-12-18T18:37:57.848Z,-3.75
2022-12-18T18:43:01.101Z,-4.01
2022-12-18T18:48:06.288Z,-4.30
2022-12-18T18:53:09.693Z,-4.54
2022-12-18T18:58:13.153Z,-4.77
2022-12-18T19:03:17.113Z,-4.98
2022-12-18T19:08:24.098Z,-5.14
2022-12-18T19:13:30.761Z,-5.19
2022-12-18T19:18:35.609Z,-5.34
2022-12-18T19:23:39.396Z,-5.51
2022-12-18T19:28:46.461Z,-5.69
2022-12-18T19:33:49.791Z,-5.86
2022-12-18T19:38:55.136Z,-6.02
2022-12-18T19:43:58.933Z,-6.19
2022-12-18T19:49:02.654Z,-6.35
2022-12-18T19:54:06.143Z,-6.44
2022-12-18T19:59:10.334Z,-6.46
2022-12-18T20:04:13.785Z,-6.51
2022-12-18T20:09:18.423Z,-6.55
2022-12-18T20:14:23.710Z,-4.83
2022-12-18T20:19:27.383Z,-1.80
2022-12-18T20:24:34.422Z,-0.06
2022-12-18T20:29:37.858Z,0.72
2022-12-18T20:34:41.552Z,1.15
2022-12-18T20:39:45.319Z,1.35
2022-12-18T20:44:48.653Z,2.27
2022-12-18T20:49:52.133Z,2.91
2022-12-18T20:54:55.872Z,2.88
2022-12-18T21:00:00.929Z,3.35
2022-12-18T21:05:05.062Z,3.57
2022-12-18T21:10:08.821Z,3.53
2022-12-18T21:15:12.399Z,3.18
2022-12-18T21:20:17.999Z,2.80
2022-12-18T21:25:22.528Z,3.29
2022-12-18T21:30:25.950Z,3.98
2022-12-18T21:35:29.430Z,4.54
2022-12-18T21:40:35.856Z,4.79
2022-12-18T21:45:41.575Z,5.00
2022-12-18T21:50:45.914Z,5.05
2022-12-18T21:55:58.445Z,4.80
2022-12-18T22:01:02.378Z,4.19
2022-12-18T22:06:09.680Z,3.54
2022-12-18T22:11:13.840Z,3.71
2022-12-18T22:16:18.018Z,3.97
2022-12-18T22:21:34.222Z,3.88
2022-12-18T22:26:40.127Z,3.52
2022-12-18T22:31:44.297Z,3.48
2022-12-18T22:36:49.110Z,3.12
2022-12-18T22:41:53.166Z,2.37
2022-12-18T22:47:06.487Z,0.91
2022-12-18T22:52:10.812Z,1.01
2022-12-18T22:57:14.219Z,0.82
2022-12-18T23:02:19.422Z,1.38
2022-12-18T23:07:23.132Z,2.12
2022-12-18T23:12:26.381Z,2.74
2022-12-18T23:17:30.063Z,3.39
2022-12-18T23:22:33.326Z,2.88
2022-12-18T23:27:36.588Z,1.24
2022-12-18T23:32:41.641Z,-0.77
2022-12-18T23:38:02.121Z,-1.62
2022-12-18T23:43:05.447Z,-1.92
2022-12-18T23:48:08.776Z,-2.97
2022-12-18T23:53:12.914Z,-2.79
2022-12-18T23:58:21.399Z,-0.30
